KCAE/CAE METAR and TAF weather

Enter ICAO airport designator
Station Type Date Time Source
KCAE METAR 2021/05/11 21:56 UTC NOAA

KCAE 112156Z 35005KT 10SM SCT055 BKN150 26/16 A3002 RMK AO2 SLP165 T02560161


Station Type Date Time Source
KCAE Decoded METAR 2021/05/11 21:56 UTC NOAA

COLUMBIA METROPOLITAN AIRPORT , SC, United States (KCAE) 33-57N 081-07W 73M
May 11, 2021 - 05:56 PM EDT / 2021.05.11 2156 UTC
Wind: from the N (350 degrees) at 6 MPH (5 KT):0
Visibility: 10 mile(s):0
Sky conditions: mostly cloudy
Temperature: 78.1 F (25.6 C)
Dew Point: 61.0 F (16.1 C)
Relative Humidity: 55%
Pressure (altimeter): 30.02 in. Hg (1016 hPa)
ob: KCAE 112156Z 35005KT 10SM SCT055 BKN150 26/16 A3002 RMK AO2 SLP165 T02560161
cycle: 22

Station Type Date Time Source
KCAE TAF 2021/05/11 21:52 UTC NOAA

TAF
AMD KCAE 112050Z 1121/1218 VRB04KT P6SM VCSH SCT040 BKN100
FM120000 VRB04KT P6SM BKN080
FM120700 VRB03KT 4SM RA BR OVC015
FM121000 04006KT P6SM -RA OVC007

Example: see airport list